Time;durP1;ratioP1;P1;durP2;ratioP2;P2;SDS_P1;SDS_P2;PMS_P1;PMS_P2;Temp;Humidity;BMP_temperature;BMP_pressure;BME280_temperature;BME280_humidity;BME280_pressure;Samples;Min_cycle;Max_cycle;Signal;HPM_P1;HPM_P2
2022/10/28 00:01:37;;;;;;;4.22;1.30;;;21.80;62.80;;;;;;5071586;28;20095;-69
2022/10/28 00:04:04;;;;;;;3.58;1.15;;;21.80;62.90;;;;;;5068955;28;20479;-69
2022/10/28 00:06:33;;;;;;;10.80;1.13;;;21.70;63.30;;;;;;5069344;28;20025;-69
2022/10/28 00:09:01;;;;;;;5.65;1.20;;;21.80;63.40;;;;;;5066114;28;20473;-69
2022/10/28 00:11:33;;;;;;;5.05;1.30;;;21.80;63.30;;;;;;5064772;28;20369;-69
2022/10/28 00:14:03;;;;;;;3.20;0.80;;;21.80;63.50;;;;;;5064958;28;20438;-69
2022/10/28 00:16:32;;;;;;;3.45;1.08;;;21.80;63.70;;;;;;5070343;28;20027;-70
2022/10/28 00:19:00;;;;;;;23.52;1.83;;;21.80;64.00;;;;;;5068273;28;20103;-69
2022/10/28 00:21:30;;;;;;;30.50;5.35;;;21.80;64.00;;;;;;5068345;28;20032;-69
2022/10/28 00:23:57;;;;;;;8.52;1.75;;;21.80;64.00;;;;;;5066588;28;20020;-70
2022/10/28 00:26:26;;;;;;;4.38;1.00;;;21.70;64.00;;;;;;5071534;28;20058;-71
2022/10/28 00:29:05;;;;;;;4.53;1.10;;;21.70;64.10;;;;;;5068090;28;20108;-69
2022/10/28 00:31:32;;;;;;;5.18;1.10;;;21.70;64.10;;;;;;5067968;28;20028;-69
2022/10/28 00:34:00;;;;;;;6.05;1.42;;;21.70;63.90;;;;;;5068215;28;20056;-69
2022/10/28 00:36:30;;;;;;;6.40;2.28;;;21.70;64.00;;;;;;5064546;28;20024;-70
2022/10/28 00:38:58;;;;;;;1.98;1.17;;;21.70;64.30;;;;;;5067819;28;20029;-69
2022/10/28 00:41:28;;;;;;;7.43;3.75;;;21.70;64.50;;;;;;5065634;28;20021;-69
2022/10/28 00:43:57;;;;;;;4.07;1.10;;;21.70;65.00;;;;;;5065489;28;20033;-69
2022/10/28 00:46:40;;;;;;;3.53;1.38;;;21.70;65.50;;;;;;5068164;28;20553;-70
2022/10/28 00:49:22;;;;;;;7.15;1.23;;;21.60;65.60;;;;;;5064920;28;20027;-69
2022/10/28 00:51:53;;;;;;;7.70;1.10;;;21.60;65.70;;;;;;5068809;28;20021;-70
2022/10/28 00:54:21;;;;;;;4.25;1.08;;;21.60;65.60;;;;;;5065846;28;20019;-69
2022/10/28 00:56:52;;;;;;;3.60;1.23;;;21.60;65.50;;;;;;5066975;28;20018;-69
2022/10/28 00:59:29;;;;;;;4.47;0.80;;;21.60;65.20;;;;;;5067766;28;20023;-68
2022/10/28 01:01:55;;;;;;;7.40;1.30;;;21.60;65.10;;;;;;5067954;28;20013;-70
2022/10/28 01:04:22;;;;;;;2.80;0.73;;;21.60;65.00;;;;;;5065884;28;20151;-69
2022/10/28 01:06:49;;;;;;;2.33;0.68;;;21.60;65.00;;;;;;5066674;28;20495;-69
2022/10/28 01:09:16;;;;;;;1.00;0.70;;;21.60;65.10;;;;;;5068164;28;20101;-69
2022/10/28 01:11:54;;;;;;;2.20;0.85;;;21.60;65.30;;;;;;5067175;28;20028;-69
2022/10/28 01:14:31;;;;;;;7.95;1.35;;;21.60;65.70;;;;;;5067699;28;20435;-69
2022/10/28 01:17:18;;;;;;;6.18;1.10;;;21.60;65.70;;;;;;5062861;28;20483;-69
2022/10/28 01:20:19;;;;;;;5.35;2.08;;;21.60;66.00;;;;;;5068274;28;20032;-69
2022/10/28 01:22:59;;;;;;;10.07;2.03;;;21.50;66.10;;;;;;5074075;28;20082;-70
2022/10/28 01:26:05;;;;;;;6.85;1.23;;;21.50;66.50;;;;;;5071418;28;20119;-69
2022/10/28 01:29:01;;;;;;;5.20;1.90;;;21.60;66.90;;;;;;5068929;28;20032;-69
2022/10/28 01:31:27;;;;;;;7.93;1.73;;;21.50;67.00;;;;;;5069343;28;20035;-69
2022/10/28 01:34:09;;;;;;;3.97;1.00;;;21.50;66.80;;;;;;5071596;28;20036;-71
2022/10/28 01:36:59;;;;;;;3.00;1.08;;;21.50;66.70;;;;;;5068733;28;20021;-70
2022/10/28 01:39:33;;;;;;;8.45;2.85;;;21.50;66.60;;;;;;5070285;28;20074;-70
2022/10/28 01:42:05;;;;;;;12.18;4.00;;;21.50;66.70;;;;;;5067517;28;20027;-69
2022/10/28 01:45:13;;;;;;;9.48;1.67;;;21.50;67.40;;;;;;5072320;28;20032;-69
2022/10/28 01:48:10;;;;;;;7.95;1.88;;;21.50;68.10;;;;;;5068173;28;20036;-69
2022/10/28 01:51:05;;;;;;;6.93;2.05;;;21.50;68.50;;;;;;5070551;28;20515;-71
2022/10/28 01:53:36;;;;;;;5.88;1.33;;;21.50;68.80;;;;;;5052990;28;20056;-69
2022/10/28 01:56:07;;;;;;;6.22;1.50;;;21.50;68.80;;;;;;5071613;28;20067;-69
2022/10/28 01:58:37;;;;;;;7.28;2.28;;;21.50;69.10;;;;;;5070548;28;20020;-70
2022/10/28 02:01:06;;;;;;;7.07;1.95;;;21.50;69.10;;;;;;5071545;28;20491;-69
2022/10/28 02:03:33;;;;;;;3.05;1.50;;;21.40;69.10;;;;;;5069970;28;20028;-69
2022/10/28 02:06:03;;;;;;;3.08;1.20;;;21.40;69.10;;;;;;5069966;28;20021;-69
2022/10/28 02:08:52;;;;;;;5.88;1.52;;;21.40;69.00;;;;;;5070436;28;20509;-69
2022/10/28 02:11:21;;;;;;;6.95;1.88;;;21.40;68.90;;;;;;5067044;28;20040;-69
2022/10/28 02:13:53;;;;;;;13.50;4.22;;;21.40;69.00;;;;;;5069221;28;20079;-70
2022/10/28 02:16:50;;;;;;;5.03;1.67;;;21.40;69.30;;;;;;5073137;28;20024;-69
2022/10/28 02:19:38;;;;;;;6.50;1.40;;;21.40;69.40;;;;;;5069277;28;20427;-69
2022/10/28 02:22:29;;;;;;;9.35;2.58;;;21.40;69.80;;;;;;5067820;28;20035;-70
2022/10/28 02:25:07;;;;;;;10.95;2.75;;;21.40;70.00;;;;;;5068550;28;20025;-70
2022/10/28 02:27:49;;;;;;;6.43;1.70;;;21.40;70.00;;;;;;5070210;28;20016;-69
2022/10/28 02:30:32;;;;;;;10.10;1.73;;;21.40;70.10;;;;;;5066945;28;20020;-69
2022/10/28 02:33:05;;;;;;;2.70;1.80;;;21.40;70.20;;;;;;5069763;28;20039;-69
2022/10/28 02:35:55;;;;;;;5.10;1.45;;;21.40;70.10;;;;;;5070326;28;20489;-70
2022/10/28 02:38:43;;;;;;;5.75;1.20;;;21.40;70.00;;;;;;5068475;28;20017;-69
2022/10/28 02:41:28;;;;;;;3.50;1.13;;;21.30;69.80;;;;;;5065643;28;20512;-68
2022/10/28 02:43:58;;;;;;;3.92;1.58;;;21.30;69.60;;;;;;5070602;28;20048;-69
2022/10/28 02:46:28;;;;;;;7.20;2.28;;;21.30;69.60;;;;;;5068022;28;20028;-69
2022/10/28 02:49:09;;;;;;;3.22;0.90;;;21.30;69.40;;;;;;5068058;28;20020;-69
2022/10/28 02:51:47;;;;;;;7.00;1.80;;;21.30;69.40;;;;;;5070437;28;20521;-69
2022/10/28 02:54:30;;;;;;;3.70;2.00;;;21.30;69.40;;;;;;5067845;28;20384;-69
2022/10/28 02:57:14;;;;;;;6.57;1.55;;;21.30;69.60;;;;;;5070254;28;20032;-69
2022/10/28 02:59:41;;;;;;;10.52;2.22;;;21.30;69.80;;;;;;5068723;28;20038;-69
2022/10/28 03:02:08;;;;;;;5.18;1.25;;;21.20;70.10;;;;;;5066533;28;20129;-68
2022/10/28 03:04:35;;;;;;;8.20;1.80;;;21.20;70.10;;;;;;5066732;28;20128;-69
2022/10/28 03:07:01;;;;;;;23.67;7.28;;;21.30;70.30;;;;;;5068563;28;20387;-69
2022/10/28 03:09:27;;;;;;;22.30;5.90;;;21.30;70.90;;;;;;5068188;28;20553;-69
2022/10/28 03:11:54;;;;;;;13.70;3.53;;;21.30;71.20;;;;;;5066446;28;20024;-69
2022/10/28 03:14:20;;;;;;;6.50;2.88;;;21.30;70.80;;;;;;5070390;28;20017;-69
2022/10/28 03:16:47;;;;;;;8.00;2.83;;;21.20;70.30;;;;;;5070584;28;20077;-69
2022/10/28 03:19:13;;;;;;;7.78;1.95;;;21.20;70.00;;;;;;5065927;28;20021;-70
2022/10/28 03:21:40;;;;;;;3.40;1.85;;;21.20;69.90;;;;;;5069045;28;20062;-69
2022/10/28 03:24:06;;;;;;;9.27;3.13;;;21.10;69.90;;;;;;5069928;28;20044;-69
2022/10/28 03:26:33;;;;;;;5.78;1.50;;;21.20;69.90;;;;;;5068511;28;20017;-69
2022/10/28 03:28:59;;;;;;;2.70;1.17;;;21.10;70.00;;;;;;5065995;28;20052;-70
2022/10/28 03:31:26;;;;;;;8.48;1.52;;;21.10;69.90;;;;;;5068093;28;20029;-70
2022/10/28 03:33:52;;;;;;;6.70;1.90;;;21.10;69.90;;;;;;5066246;28;20036;-69
2022/10/28 03:36:18;;;;;;;2.80;1.25;;;21.10;69.80;;;;;;5072326;28;20087;-68
2022/10/28 03:38:45;;;;;;;6.50;1.85;;;21.00;69.80;;;;;;5072334;28;20028;-67
2022/10/28 03:41:11;;;;;;;3.70;1.45;;;21.00;69.90;;;;;;5067190;28;20020;-70
2022/10/28 03:43:38;;;;;;;3.95;1.45;;;21.00;69.90;;;;;;5063820;28;20037;-69
2022/10/28 03:46:05;;;;;;;15.75;6.85;;;21.00;70.00;;;;;;5065793;28;20404;-71
2022/10/28 03:48:31;;;;;;;18.70;9.15;;;21.00;70.70;;;;;;5068125;28;20479;-69
2022/10/28 03:50:58;;;;;;;12.23;7.07;;;21.00;72.30;;;;;;5067796;28;20020;-69
2022/10/28 03:53:24;;;;;;;12.88;3.97;;;21.00;71.70;;;;;;5071240;28;20437;-71
2022/10/28 03:56:30;;;;;;;8.55;3.75;;;21.00;70.90;;;;;;5067505;28;20016;-70
2022/10/28 03:59:36;;;;;;;4.95;1.98;;;21.00;70.50;;;;;;5067120;28;20025;-68
2022/10/28 04:02:42;;;;;;;6.93;2.10;;;20.90;70.00;;;;;;5065171;28;20497;-71
2022/10/28 06:19:05;;;;;;;16.30;4.63;;;20.90;71.30;;;;;;5007994;28;20868;-70
2022/10/28 06:21:31;;;;;;;23.92;6.10;;;21.30;71.80;;;;;;5014688;28;20036;-70
2022/10/28 06:23:58;;;;;;;11.60;3.65;;;21.40;71.70;;;;;;5010422;28;20033;-69
2022/10/28 06:26:24;;;;;;;10.80;2.33;;;21.40;72.30;;;;;;5009087;28;20106;-70
2022/10/28 06:28:51;;;;;;;26.65;3.33;;;21.50;73.30;;;;;;5010514;28;20152;-70
2022/10/28 06:31:17;;;;;;;12.07;2.33;;;21.60;72.20;;;;;;5008972;28;20026;-69
2022/10/28 06:33:44;;;;;;;8.93;2.38;;;21.70;71.70;;;;;;5006622;28;20026;-70
2022/10/28 06:36:10;;;;;;;5.20;1.85;;;21.70;71.70;;;;;;5013602;28;20040;-70
2022/10/28 06:38:37;;;;;;;5.60;2.22;;;21.80;71.30;;;;;;5009094;28;20049;-70
2022/10/28 06:41:03;;;;;;;6.80;1.77;;;21.80;70.70;;;;;;5005545;28;20112;-70
2022/10/28 06:43:30;;;;;;;6.13;1.63;;;21.90;70.30;;;;;;5004159;28;20132;-70
2022/10/28 06:46:01;;;;;;;7.07;1.95;;;21.90;69.90;;;;;;5007478;28;20021;-70
2022/10/28 06:48:27;;;;;;;7.88;1.83;;;21.90;69.60;;;;;;5012847;28;20086;-70
2022/10/28 06:50:57;;;;;;;5.03;2.28;;;22.00;69.30;;;;;;5005465;28;20202;-70
2022/10/28 06:53:25;;;;;;;2.50;0.90;;;22.00;68.90;;;;;;5008354;28;20029;-70
2022/10/28 06:55:55;;;;;;;4.80;1.25;;;22.10;68.70;;;;;;5009493;28;20067;-70
2022/10/28 06:58:22;;;;;;;3.42;1.08;;;22.10;68.40;;;;;;5007707;28;20365;-70
2022/10/28 07:00:49;;;;;;;17.58;2.92;;;22.10;68.10;;;;;;5012325;28;20506;-69
2022/10/28 07:03:15;;;;;;;9.13;2.70;;;22.10;67.90;;;;;;5011474;28;20105;-70
2022/10/28 07:05:42;;;;;;;10.20;1.70;;;22.20;68.10;;;;;;5012501;28;20029;-70
2022/10/28 07:08:08;;;;;;;6.97;1.30;;;22.30;68.20;;;;;;5008527;28;20026;-70
2022/10/28 07:10:35;;;;;;;10.93;2.03;;;22.30;67.90;;;;;;5017210;28;20068;-70
2022/10/28 07:13:01;;;;;;;6.18;1.90;;;22.40;67.60;;;;;;5011023;28;20730;-70
2022/10/28 07:15:28;;;;;;;8.82;2.85;;;22.40;67.00;;;;;;5014187;28;20488;-70
2022/10/28 07:17:56;;;;;;;7.40;2.40;;;22.40;66.80;;;;;;5004570;28;20515;-70
2022/10/28 07:20:24;;;;;;;20.63;4.75;;;22.50;66.70;;;;;;4990773;28;20049;-70
2022/10/28 07:23:01;;;;;;;15.68;4.78;;;22.50;66.70;;;;;;4992106;28;20034;-69
2022/10/28 07:25:30;;;;;;;12.43;3.33;;;22.60;66.60;;;;;;4996210;28;20027;-70
2022/10/28 07:28:00;;;;;;;4.68;1.92;;;22.70;66.90;;;;;;4996591;28;20064;-70
2022/10/28 07:30:27;;;;;;;7.60;3.00;;;22.70;66.80;;;;;;4998710;28;20023;-70
2022/10/28 07:32:54;;;;;;;12.75;1.85;;;22.80;67.00;;;;;;4998229;28;20078;-70
2022/10/28 07:35:21;;;;;;;10.40;2.00;;;22.80;66.00;;;;;;4999913;28;20034;-70
2022/10/28 07:37:47;;;;;;;5.63;1.50;;;22.80;65.80;;;;;;4997617;28;20035;-70
2022/10/28 07:40:14;;;;;;;5.38;1.40;;;22.90;65.70;;;;;;4997991;28;20499;-70
2022/10/28 07:42:40;;;;;;;18.63;2.90;;;23.00;65.60;;;;;;5000055;28;20504;-70
2022/10/28 07:45:07;;;;;;;8.88;4.38;;;23.00;65.30;;;;;;4994483;28;20476;-70
2022/10/28 07:47:34;;;;;;;9.10;3.75;;;23.10;65.20;;;;;;5002430;28;20513;-70
2022/10/28 07:50:00;;;;;;;6.53;2.30;;;23.10;64.60;;;;;;5004394;28;20049;-70
2022/10/28 07:52:27;;;;;;;6.47;1.90;;;23.20;64.20;;;;;;4996367;28;20026;-70
2022/10/28 07:54:53;;;;;;;5.78;1.75;;;23.20;63.60;;;;;;4996987;28;20013;-70
2022/10/28 07:57:20;;;;;;;10.10;1.90;;;23.30;63.20;;;;;;4999306;28;20042;-70
2022/10/28 07:59:46;;;;;;;3.03;1.48;;;23.30;62.20;;;;;;5001486;28;20030;-70
2022/10/28 08:02:19;;;;;;;8.30;1.42;;;23.40;62.30;;;;;;4992633;28;20026;-70
2022/10/28 08:04:45;;;;;;;5.28;2.17;;;23.40;62.20;;;;;;4996591;28;20022;-70
2022/10/28 08:07:12;;;;;;;10.43;1.70;;;23.50;61.90;;;;;;4996080;28;20029;-70
2022/10/28 08:09:39;;;;;;;3.38;1.60;;;23.60;61.80;;;;;;4992902;28;20018;-70
2022/10/28 08:12:06;;;;;;;3.88;0.80;;;23.60;61.60;;;;;;4999578;28;20029;-70
2022/10/28 08:14:34;;;;;;;3.75;2.03;;;23.70;62.00;;;;;;4999725;28;20031;-70
2022/10/28 08:17:00;;;;;;;5.68;2.80;;;23.70;61.10;;;;;;5015917;28;20048;-70
2022/10/28 08:19:27;;;;;;;8.10;2.75;;;23.80;61.00;;;;;;5000629;28;20026;-70
2022/10/28 08:21:53;;;;;;;12.65;6.65;;;23.90;60.80;;;;;;4997021;28;20022;-69
2022/10/28 08:24:20;;;;;;;17.27;8.20;;;23.90;60.10;;;;;;4995457;28;20022;-70
2022/10/28 08:26:46;;;;;;;12.82;5.15;;;24.00;60.10;;;;;;5001567;28;20108;-70
2022/10/28 08:29:13;;;;;;;22.40;6.05;;;24.00;60.00;;;;;;4993419;28;20489;-70
2022/10/28 08:31:39;;;;;;;8.18;3.72;;;24.10;59.60;;;;;;4997367;28;20105;-70
2022/10/28 08:34:06;;;;;;;4.78;2.35;;;24.10;59.40;;;;;;4992188;28;20109;-70
2022/10/28 08:36:33;;;;;;;21.55;3.75;;;24.20;59.30;;;;;;4997076;28;20018;-70
2022/10/28 08:39:00;;;;;;;2.28;1.73;;;24.20;58.50;;;;;;4993688;28;20057;-70
2022/10/28 08:41:40;;;;;;;4.53;1.35;;;24.30;58.20;;;;;;4995259;28;20014;-70
2022/10/28 08:44:43;;;;;;;12.55;3.28;;;24.30;57.70;;;;;;4998327;28;20026;-70
2022/10/28 08:47:28;;;;;;;12.30;1.75;;;24.40;57.90;;;;;;4995138;28;20501;-70
2022/10/28 08:50:20;;;;;;;10.32;2.45;;;24.50;58.20;;;;;;4994617;28;20030;-70
2022/10/28 08:52:56;;;;;;;8.13;1.60;;;24.60;58.30;;;;;;5001997;28;20045;-71
2022/10/28 08:55:38;;;;;;;5.82;1.33;;;24.70;58.30;;;;;;4998543;28;20019;-70
2022/10/28 08:58:33;;;;;;;2.75;1.38;;;24.70;57.80;;;;;;4999983;28;20045;-70
2022/10/28 09:01:00;;;;;;;9.05;1.10;;;24.80;57.40;;;;;;4996956;28;20029;-70
2022/10/28 09:03:49;;;;;;;10.30;2.03;;;24.90;57.20;;;;;;4998612;28;20019;-70
2022/10/28 09:06:16;;;;;;;3.22;0.90;;;24.90;57.00;;;;;;4990744;28;20068;-70
2022/10/28 09:08:46;;;;;;;2.47;0.90;;;25.00;56.70;;;;;;4991304;28;20473;-70
2022/10/28 09:11:23;;;;;;;3.40;1.67;;;25.10;56.60;;;;;;4992765;28;20041;-70
2022/10/28 09:14:07;;;;;;;2.95;1.00;;;25.10;56.70;;;;;;4994597;28;20026;-70
2022/10/28 09:16:39;;;;;;;5.32;2.25;;;25.20;56.40;;;;;;4994426;28;20473;-71
2022/10/28 09:19:15;;;;;;;5.60;1.25;;;25.20;56.10;;;;;;4992231;28;20029;-70
2022/10/28 09:21:50;;;;;;;7.80;1.77;;;25.30;56.00;;;;;;4995426;28;20376;-70
2022/10/28 09:24:26;;;;;;;5.13;1.33;;;25.40;56.00;;;;;;5000446;28;20469;-70
2022/10/28 09:27:04;;;;;;;6.82;2.30;;;25.50;55.80;;;;;;4994881;28;20026;-70
2022/10/28 09:29:56;;;;;;;5.97;2.85;;;25.50;54.80;;;;;;4995558;28;20370;-70
2022/10/28 09:32:36;;;;;;;26.73;16.63;;;25.60;54.30;;;;;;4998351;28;20046;-70
2022/10/28 09:35:09;;;;;;;11.27;7.95;;;25.70;54.10;;;;;;4990569;28;20022;-70
2022/10/28 09:37:49;;;;;;;10.52;4.32;;;25.70;53.70;;;;;;4993187;28;20544;-70
2022/10/28 09:40:30;;;;;;;8.65;3.42;;;25.80;53.50;;;;;;4991182;28;20109;-70
2022/10/28 09:43:24;;;;;;;5.93;2.50;;;25.80;53.50;;;;;;4986399;28;20113;-70
2022/10/28 09:45:54;;;;;;;7.55;1.45;;;25.90;53.40;;;;;;5007751;28;20109;-70
2022/10/28 09:48:41;;;;;;;12.02;4.72;;;25.90;53.30;;;;;;4992690;28;20457;-70
2022/10/28 09:51:22;;;;;;;8.70;3.28;;;26.00;53.40;;;;;;4994604;28;20132;-70
2022/10/28 09:54:00;;;;;;;8.93;2.97;;;26.10;53.60;;;;;;4992566;28;20369;-71
2022/10/28 09:56:27;;;;;;;5.53;2.63;;;26.10;53.50;;;;;;4989808;28;20107;-70
2022/10/28 09:58:58;;;;;;;5.25;1.27;;;26.20;53.10;;;;;;4992640;28;20472;-70
2022/10/28 10:01:24;;;;;;;4.10;1.30;;;26.20;53.00;;;;;;4990330;28;20015;-70
2022/10/28 10:03:51;;;;;;;2.42;1.23;;;26.30;52.90;;;;;;4992380;28;20030;-70
2022/10/28 10:06:28;;;;;;;6.93;1.65;;;26.40;52.90;;;;;;4999215;28;20026;-70
2022/10/28 10:08:56;;;;;;;2.35;1.27;;;26.40;52.80;;;;;;4997419;28;20030;-70
2022/10/28 10:11:42;;;;;;;2.78;1.00;;;26.50;52.70;;;;;;4996296;28;20121;-70
2022/10/28 10:14:17;;;;;;;0.75;0.75;;;26.50;52.60;;;;;;4993109;28;20381;-70
2022/10/28 10:16:48;;;;;;;;;;;26.60;52.70;;;;;;4997494;28;20073;-70
2022/10/28 10:19:15;;;;;;;6.28;1.63;;;26.60;53.00;;;;;;4992939;28;19924;-70
2022/10/28 10:21:47;;;;;;;2.25;1.25;;;26.70;53.00;;;;;;4995371;28;20046;-70
2022/10/28 10:24:26;;;;;;;3.97;1.77;;;26.80;52.80;;;;;;4997787;28;20049;-70
2022/10/28 10:26:53;;;;;;;2.75;1.45;;;26.80;52.40;;;;;;4995134;28;20014;-70
2022/10/28 10:29:21;;;;;;;6.13;1.80;;;26.90;52.40;;;;;;4997299;28;20030;-72
2022/10/28 10:32:02;;;;;;;11.07;1.85;;;26.90;52.50;;;;;;4995717;28;20026;-71
2022/10/28 10:34:29;;;;;;;21.77;8.88;;;27.00;52.80;;;;;;4993810;28;20511;-72
2022/10/28 10:36:56;;;;;;;10.18;4.72;;;27.00;54.50;;;;;;4990130;28;20083;-72
2022/10/28 10:39:27;;;;;;;7.43;2.83;;;27.00;54.90;;;;;;4992597;28;20018;-71
2022/10/28 10:41:54;;;;;;;7.70;1.90;;;27.10;54.70;;;;;;5000442;28;20036;-72
2022/10/28 10:44:21;;;;;;;4.93;1.92;;;27.10;53.70;;;;;;4996928;28;20521;-73
2022/10/28 10:46:59;;;;;;;6.32;1.52;;;27.10;53.60;;;;;;4998005;28;20014;-73
2022/10/28 10:49:27;;;;;;;7.05;1.60;;;27.20;53.20;;;;;;4995310;28;20053;-72
2022/10/28 10:51:59;;;;;;;6.70;1.17;;;27.30;52.90;;;;;;4996120;28;20049;-71
2022/10/28 10:54:31;;;;;;;3.63;1.20;;;27.30;52.50;;;;;;4997258;28;20023;-74
2022/10/28 10:57:20;;;;;;;2.13;1.00;;;27.40;52.80;;;;;;4996647;28;20042;-74
2022/10/28 10:59:49;;;;;;;5.82;1.02;;;27.40;52.80;;;;;;4995921;28;20504;-73
2022/10/28 11:02:35;;;;;;;3.30;1.50;;;27.50;52.60;;;;;;4995795;28;20114;-73
2022/10/28 11:05:08;;;;;;;1.58;0.98;;;27.60;52.30;;;;;;4999991;28;20030;-71
2022/10/28 11:07:39;;;;;;;7.47;1.75;;;27.60;52.20;;;;;;4996982;28;20057;-74
2022/10/28 11:10:18;;;;;;;2.03;1.10;;;27.70;51.40;;;;;;5000231;28;20023;-71
2022/10/28 11:12:52;;;;;;;3.05;1.20;;;27.70;51.20;;;;;;4997376;28;20080;-72
2022/10/28 11:15:27;;;;;;;3.55;1.13;;;27.80;51.00;;;;;;4995766;28;20437;-74
2022/10/28 11:18:00;;;;;;;2.30;1.13;;;27.80;51.00;;;;;;4999205;28;21008;-74
2022/10/28 11:20:36;;;;;;;7.82;1.05;;;27.90;50.80;;;;;;4995368;28;20110;-72
2022/10/28 11:23:22;;;;;;;2.85;1.30;;;27.90;50.90;;;;;;4999508;28;20019;-72
2022/10/28 11:25:54;;;;;;;3.92;1.50;;;28.00;51.00;;;;;;4999357;28;20054;-73
2022/10/28 11:28:40;;;;;;;5.35;1.60;;;28.00;50.60;;;;;;4995506;28;20434;-74
2022/10/28 11:31:45;;;;;;;7.47;1.63;;;28.10;50.10;;;;;;5002407;28;20341;-74
2022/10/28 11:34:59;;;;;;;4.20;1.25;;;28.10;50.30;;;;;;4996024;28;20030;-73
2022/10/28 11:37:41;;;;;;;2.70;0.82;;;28.20;50.40;;;;;;4996998;28;20042;-74
2022/10/28 11:40:31;;;;;;;2.95;2.33;;;28.20;50.60;;;;;;5003328;28;20022;-71
2022/10/28 11:43:19;;;;;;;25.00;22.42;;;28.20;50.50;;;;;;4995702;28;20038;-73
2022/10/28 11:45:59;;;;;;;10.30;7.13;;;28.30;49.90;;;;;;4998675;28;20026;-70
2022/10/28 11:48:49;;;;;;;3.55;2.55;;;28.30;50.20;;;;;;4999165;28;20507;-70
2022/10/28 11:51:30;;;;;;;9.95;2.33;;;28.40;50.50;;;;;;4998310;28;20398;-70
2022/10/28 11:54:22;;;;;;;10.30;2.38;;;28.40;50.50;;;;;;4999048;28;20030;-70
2022/10/28 11:56:53;;;;;;;3.90;1.35;;;28.40;50.50;;;;;;5008744;28;20038;-70
2022/10/28 11:59:47;;;;;;;4.68;1.63;;;28.50;50.70;;;;;;4995895;28;20540;-71
2022/10/28 12:02:55;;;;;;;5.30;1.15;;;28.60;50.90;;;;;;4995102;28;20473;-70
2022/10/28 12:05:29;;;;;;;8.55;1.58;;;28.60;50.60;;;;;;4995536;28;20068;-70
2022/10/28 12:08:03;;;;;;;4.60;1.02;;;28.60;50.30;;;;;;5008261;28;20068;-70
2022/10/28 12:10:51;;;;;;;2.40;1.38;;;28.70;50.40;;;;;;4996608;28;20023;-70
2022/10/28 12:13:28;;;;;;;15.02;2.85;;;28.80;50.50;;;;;;4997130;28;20644;-70
2022/10/28 12:16:13;;;;;;;7.57;1.80;;;28.80;50.50;;;;;;5001576;28;20126;-70
2022/10/28 12:18:43;;;;;;;3.22;1.02;;;28.80;50.60;;;;;;4994997;28;20065;-70
2022/10/28 12:21:26;;;;;;;5.57;1.10;;;28.80;50.50;;;;;;5003727;28;20026;-71
2022/10/28 12:23:57;;;;;;;3.03;0.65;;;28.80;50.90;;;;;;4993712;28;20109;-70
2022/10/28 12:26:41;;;;;;;4.07;1.02;;;28.80;51.00;;;;;;5005373;28;20370;-70
2022/10/28 12:29:26;;;;;;;5.70;1.83;;;28.80;50.70;;;;;;4999239;28;20087;-70
2022/10/28 12:32:20;;;;;;;5.40;2.22;;;28.80;50.80;;;;;;4997203;28;20025;-70
2022/10/28 12:34:56;;;;;;;4.13;1.27;;;28.90;51.00;;;;;;5000083;28;20053;-70
2022/10/28 12:37:40;;;;;;;5.60;1.98;;;28.90;51.10;;;;;;4998232;28;20480;-70
2022/10/28 12:40:19;;;;;;;8.18;1.58;;;28.90;51.00;;;;;;5002665;28;20029;-70
2022/10/28 12:42:51;;;;;;;7.80;1.58;;;28.90;51.00;;;;;;4993405;28;20476;-70
2022/10/28 12:45:20;;;;;;;5.43;1.88;;;29.00;51.20;;;;;;4998541;28;20021;-70
2022/10/28 12:48:08;;;;;;;5.50;2.05;;;28.90;51.00;;;;;;4995846;28;20022;-70
2022/10/28 12:51:03;;;;;;;7.45;2.40;;;29.00;50.80;;;;;;4995680;28;20033;-70
2022/10/28 12:53:56;;;;;;;5.93;2.17;;;29.00;50.60;;;;;;4999268;28;20034;-70
2022/10/28 12:56:36;;;;;;;2.45;1.70;;;29.00;50.70;;;;;;5001741;28;20435;-70
2022/10/28 12:59:10;;;;;;;8.25;2.67;;;29.00;50.70;;;;;;4996561;28;20098;-70
2022/10/28 13:01:36;;;;;;;6.07;2.50;;;29.00;50.90;;;;;;4997724;28;20461;-71
2022/10/28 13:04:03;;;;;;;6.47;2.05;;;29.00;50.80;;;;;;4991306;28;20035;-70
2022/10/28 13:07:00;;;;;;;5.40;2.55;;;29.10;50.90;;;;;;4995116;28;20477;-70
2022/10/28 13:09:36;;;;;;;4.13;1.60;;;29.10;50.60;;;;;;5011975;28;20366;-70
2022/10/28 13:12:17;;;;;;;12.82;3.10;;;29.10;50.50;;;;;;4993577;28;20392;-70
2022/10/28 13:15:02;;;;;;;7.05;2.75;;;29.10;50.70;;;;;;4997826;28;20226;-70
2022/10/28 13:18:10;;;;;;;4.40;1.92;;;29.10;50.60;;;;;;4995808;28;20043;-70
2022/10/28 13:20:51;;;;;;;7.47;1.75;;;29.10;50.50;;;;;;4937571;28;20038;-70
2022/10/28 13:23:27;;;;;;;10.63;2.63;;;29.00;50.20;;;;;;4986634;28;20474;-70
2022/10/28 13:26:32;;;;;;;10.18;2.45;;;29.00;50.40;;;;;;4997550;28;20069;-70
2022/10/28 13:29:02;;;;;;;10.13;2.53;;;29.00;50.80;;;;;;4986212;28;20130;-70
2022/10/28 13:31:44;;;;;;;4.97;2.38;;;29.00;51.30;;;;;;4999272;28;20050;-70
2022/10/28 13:34:16;;;;;;;5.32;1.67;;;29.00;51.30;;;;;;4995734;28;20030;-70
2022/10/28 13:36:54;;;;;;;13.02;2.75;;;29.00;51.30;;;;;;4996248;28;20109;-70
2022/10/28 13:39:42;;;;;;;9.65;2.13;;;29.00;51.30;;;;;;4991745;28;20050;-70
2022/10/28 13:42:16;;;;;;;11.27;4.20;;;29.00;51.60;;;;;;4995341;28;20055;-70
2022/10/28 13:44:45;;;;;;;;;;;29.00;51.70;;;;;;5000069;28;20030;-70
2022/10/28 13:47:26;;;;;;;9.75;2.67;;;29.00;51.80;;;;;;4998204;28;20175;-70
2022/10/28 13:50:07;;;;;;;14.05;2.97;;;29.00;51.90;;;;;;5001740;28;20019;-70
2022/10/28 13:52:38;;;;;;;13.50;4.07;;;29.00;52.50;;;;;;4999876;28;20556;-70
2022/10/28 13:55:23;;;;;;;12.32;2.97;;;29.00;52.60;;;;;;4998717;28;20026;-70
2022/10/28 13:57:57;;;;;;;9.55;3.22;;;28.90;52.60;;;;;;5000581;28;20037;-70
2022/10/28 14:00:26;;;;;;;8.85;2.83;;;28.90;52.50;;;;;;4993019;28;20038;-70
2022/10/28 14:03:15;;;;;;;10.63;3.10;;;28.90;52.50;;;;;;4995000;28;20026;-70
2022/10/28 14:05:41;;;;;;;7.95;2.17;;;28.90;52.30;;;;;;4997560;28;20105;-71
2022/10/28 14:08:26;;;;;;;6.85;2.35;;;29.00;52.20;;;;;;4996716;28;20045;-70
2022/10/28 14:11:05;;;;;;;9.05;2.92;;;28.90;52.00;;;;;;4993873;28;20019;-70
2022/10/28 14:13:39;;;;;;;10.68;2.58;;;28.90;51.80;;;;;;4995726;28;20030;-69
2022/10/28 14:16:27;;;;;;;7.30;2.47;;;28.90;52.50;;;;;;4994269;28;20468;-70
2022/10/28 14:19:20;;;;;;;6.95;2.88;;;28.90;52.10;;;;;;4999897;28;20042;-70
2022/10/28 14:21:56;;;;;;;8.13;3.10;;;28.90;52.20;;;;;;4992070;28;20511;-71
2022/10/28 14:24:35;;;;;;;11.93;4.47;;;28.80;52.50;;;;;;4998451;28;20461;-70
2022/10/28 14:27:07;;;;;;;6.70;3.05;;;28.80;52.90;;;;;;4993318;28;20435;-70
2022/10/28 14:29:53;;;;;;;8.82;3.50;;;28.70;53.00;;;;;;5002459;28;20030;-70
2022/10/28 14:32:32;;;;;;;9.73;3.10;;;28.60;53.00;;;;;;5001699;28;20030;-70
2022/10/28 14:35:15;;;;;;;10.73;2.90;;;28.60;53.20;;;;;;4997142;28;20022;-70
2022/10/28 14:38:03;;;;;;;10.20;3.47;;;28.60;53.50;;;;;;4997611;28;20040;-70
2022/10/28 14:40:44;;;;;;;9.65;3.40;;;28.60;53.70;;;;;;5000277;28;20054;-70
2022/10/28 14:43:33;;;;;;;12.20;5.65;;;28.60;53.80;;;;;;4999547;28;20018;-71
2022/10/28 14:46:37;;;;;;;14.85;3.28;;;28.60;53.70;;;;;;5001568;28;20377;-71
2022/10/28 14:49:13;;;;;;;22.85;7.63;;;28.60;53.70;;;;;;4997039;28;20490;-70
2022/10/28 14:51:41;;;;;;;19.20;4.55;;;28.60;53.80;;;;;;5000208;28;20088;-70
2022/10/28 14:54:16;;;;;;;14.15;3.97;;;28.60;54.70;;;;;;4998295;28;20054;-70
2022/10/28 14:56:44;;;;;;;11.45;5.03;;;28.50;54.80;;;;;;4993508;28;20049;-70
2022/10/28 14:59:16;;;;;;;13.85;3.90;;;28.50;54.60;;;;;;4994665;28;20566;-70
2022/10/28 15:02:17;;;;;;;11.85;3.78;;;28.50;54.50;;;;;;5001424;28;20026;-68
2022/10/28 15:04:46;;;;;;;13.20;4.22;;;28.50;54.60;;;;;;4995831;28;20026;-73
2022/10/28 15:07:16;;;;;;;13.20;7.18;;;28.50;54.50;;;;;;4992911;28;20597;-69
2022/10/28 15:09:45;;;;;;;16.48;7.28;;;28.40;54.40;;;;;;4994030;28;20021;-70
2022/10/28 15:12:16;;;;;;;10.88;4.95;;;28.40;54.60;;;;;;5002219;28;20026;-68
2022/10/28 15:14:54;;;;;;;11.20;4.60;;;28.40;54.60;;;;;;4997749;28;20057;-68
2022/10/28 15:17:27;;;;;;;11.35;4.55;;;28.40;54.50;;;;;;5010282;28;20394;-69
2022/10/28 15:19:56;;;;;;;10.63;4.95;;;28.30;54.40;;;;;;4998866;28;20045;-68
2022/10/28 15:22:32;;;;;;;11.38;3.70;;;28.30;54.50;;;;;;5007244;28;20030;-70
2022/10/28 15:24:59;;;;;;;18.63;4.80;;;28.20;54.50;;;;;;5000723;28;20033;-69
2022/10/28 15:27:32;;;;;;;15.95;5.30;;;28.20;54.70;;;;;;4996383;28;20392;-69
2022/10/28 15:29:59;;;;;;;21.85;4.68;;;28.20;54.70;;;;;;4996001;28;20022;-71
2022/10/28 15:32:31;;;;;;;18.42;5.03;;;28.10;54.70;;;;;;4996948;28;20383;-67
2022/10/28 15:34:59;;;;;;;31.30;8.02;;;28.10;54.80;;;;;;5001328;28;20109;-67
2022/10/28 15:37:29;;;;;;;39.78;6.72;;;28.10;54.90;;;;;;5000025;28;20030;-70
2022/10/28 15:40:20;;;;;;;28.17;5.18;;;28.10;55.60;;;;;;4996798;28;20034;-68
2022/10/28 15:43:19;;;;;;;16.25;4.82;;;28.00;56.00;;;;;;4995946;28;20018;-70